OEMA/MED METAR and TAF weather

Enter ICAO airport designator
Station Type Date Time Source
OEMA METAR 2019/12/07 17:00 UTC NOAA

OEMA 071700Z 32008KT CAVOK 22/M06 Q1016 NOSIG


Station Type Date Time Source
OEMA Decoded METAR 2019/12/07 17:00 UTC NOAA

Madinah, Saudi Arabia (OEMA) 24-33N 039-42E 636M
Dec 07, 2019 - 12:00 PM EST / 2019.12.07 1700 UTC
Wind: from the NW (320 degrees) at 9 MPH (8 KT):0
Visibility: greater than 7 mile(s):0
Temperature: 71 F (22 C)
Dew Point: 21 F (-6 C)
Relative Humidity: 14%
Pressure (altimeter): 30.00 in. Hg (1016 hPa)
ob: OEMA 071700Z 32008KT CAVOK 22/M06 Q1016 NOSIG
cycle: 17

Station Type Date Time Source
OEMA TAF 2019/12/07 18:06 UTC NOAA

TAF OEMA 071700Z 0718/0824 VRB03KT 9999 FEW040
BECMG 0806/0808 10010KT

Example: see airport list